createdAt,value
2022-10-19T00:00:12.158Z,17.20
2022-10-19T00:02:38.881Z,17.14
2022-10-19T00:05:06.361Z,17.10
2022-10-19T00:07:34.821Z,17.10
2022-10-19T00:10:01.927Z,17.12
2022-10-19T00:12:28.731Z,17.10
2022-10-19T00:14:55.711Z,17.10
2022-10-19T00:17:22.840Z,17.10
2022-10-19T00:19:49.651Z,17.10
2022-10-19T00:22:16.522Z,17.10
2022-10-19T00:24:43.466Z,17.10
2022-10-19T00:27:10.688Z,17.10
2022-10-19T00:29:38.699Z,17.10
2022-10-19T00:32:05.814Z,17.10
2022-10-19T00:34:32.687Z,17.10
2022-10-19T00:36:59.478Z,17.10
2022-10-19T00:39:26.349Z,17.10
2022-10-19T00:41:53.195Z,17.10
2022-10-19T00:44:20.047Z,17.10
2022-10-19T00:46:53.227Z,17.10
2022-10-19T00:49:35.164Z,17.10
2022-10-19T00:52:08.240Z,17.10
2022-10-19T00:54:39.501Z,17.10
2022-10-19T00:57:08.137Z,17.08
2022-10-19T00:59:37.027Z,17.10
2022-10-19T01:02:06.541Z,17.00
2022-10-19T01:04:38.572Z,17.00
2022-10-19T01:07:08.246Z,17.00
2022-10-19T01:09:35.412Z,17.00
2022-10-19T01:12:31.481Z,16.94
2022-10-19T01:15:24.186Z,16.90
2022-10-19T01:18:02.544Z,16.90
2022-10-19T01:21:20.294Z,16.90
2022-10-19T01:24:39.792Z,16.90
2022-10-19T01:27:29.653Z,16.90
2022-10-19T01:30:28.882Z,16.90
2022-10-19T01:33:59.391Z,16.90
2022-10-19T01:36:38.155Z,16.90
2022-10-19T01:39:38.335Z,16.90
2022-10-19T01:42:17.883Z,16.90
2022-10-19T01:44:52.934Z,16.90
2022-10-19T01:47:27.524Z,16.90
2022-10-19T01:50:00.841Z,16.90
2022-10-19T01:52:29.335Z,16.86
2022-10-19T01:55:00.806Z,16.80
2022-10-19T01:57:46.440Z,16.80
2022-10-19T02:00:17.002Z,16.80
2022-10-19T02:02:50.352Z,16.80
2022-10-19T02:05:22.039Z,16.70
2022-10-19T02:08:00.116Z,16.70
2022-10-19T02:10:29.202Z,16.70
2022-10-19T02:12:58.311Z,16.60
2022-10-19T02:15:29.134Z,16.60
2022-10-19T02:17:59.906Z,16.60
2022-10-19T02:20:28.967Z,16.60
2022-10-19T02:22:56.318Z,16.60
2022-10-19T02:25:25.111Z,16.60
2022-10-19T02:27:52.887Z,16.60
2022-10-19T02:30:22.405Z,16.60
2022-10-19T02:32:50.676Z,16.58
2022-10-19T02:35:18.010Z,16.52
2022-10-19T02:37:45.464Z,16.50
2022-10-19T02:40:13.041Z,16.50
2022-10-19T02:42:58.423Z,16.50
2022-10-19T02:45:35.395Z,16.50
2022-10-19T02:48:18.007Z,16.50
2022-10-19T02:50:47.811Z,16.50
2022-10-19T02:53:16.582Z,16.50
2022-10-19T02:55:44.280Z,16.50
2022-10-19T02:58:11.082Z,16.50
2022-10-19T03:00:38.128Z,16.50
2022-10-19T03:03:04.981Z,16.42
2022-10-19T03:05:32.356Z,16.40
2022-10-19T03:07:59.138Z,16.40
2022-10-19T03:10:26.142Z,16.40
2022-10-19T03:12:53.085Z,16.40
2022-10-19T03:15:20.337Z,16.40
2022-10-19T03:17:47.126Z,16.40
2022-10-19T03:20:14.021Z,16.38
2022-10-19T03:22:40.898Z,16.30
2022-10-19T03:25:08.562Z,16.30
2022-10-19T03:27:35.833Z,16.30
2022-10-19T03:30:03.260Z,16.30
2022-10-19T03:32:30.083Z,16.30
2022-10-19T03:34:56.893Z,16.30
2022-10-19T03:37:23.862Z,16.30
2022-10-19T03:39:50.688Z,16.30
2022-10-19T03:42:17.535Z,16.30
2022-10-19T03:44:44.410Z,16.30
2022-10-19T03:47:11.233Z,16.24
2022-10-19T03:49:40.222Z,16.20
2022-10-19T03:52:09.323Z,16.24
2022-10-19T03:54:36.311Z,16.30
2022-10-19T03:57:03.185Z,16.28
2022-10-19T03:59:30.015Z,16.30
2022-10-19T04:01:56.796Z,16.22
2022-10-19T04:04:23.941Z,16.20
2022-10-19T04:06:51.390Z,16.20
2022-10-19T04:09:21.510Z,16.20
2022-10-19T04:11:49.589Z,16.20
2022-10-19T04:14:27.194Z,16.26
2022-10-19T04:17:03.982Z,16.22
2022-10-19T04:19:31.847Z,16.20
2022-10-19T04:21:58.709Z,16.20
2022-10-19T04:24:25.504Z,16.20
2022-10-19T04:26:55.312Z,16.20
2022-10-19T04:29:29.660Z,16.18
2022-10-19T04:31:59.057Z,16.16
2022-10-19T04:34:25.870Z,16.10
2022-10-19T04:36:54.083Z,16.10
2022-10-19T04:39:21.168Z,16.10
2022-10-19T04:41:48.028Z,16.10
2022-10-19T04:44:15.658Z,16.10
2022-10-19T04:46:42.549Z,16.10
2022-10-19T04:49:09.393Z,16.10
2022-10-19T04:51:36.130Z,16.06
2022-10-19T04:54:04.841Z,16.00
2022-10-19T04:56:32.509Z,16.00
2022-10-19T04:59:00.613Z,16.00
2022-10-19T05:01:30.664Z,16.00
2022-10-19T05:04:03.032Z,15.98
2022-10-19T05:06:31.572Z,15.98
2022-10-19T05:08:59.796Z,15.98
2022-10-19T05:11:27.488Z,15.96
2022-10-19T05:13:54.354Z,15.94
2022-10-19T05:16:23.500Z,15.90
2022-10-19T05:18:53.269Z,15.90
2022-10-19T05:21:21.897Z,15.90
2022-10-19T05:23:53.571Z,16.00
2022-10-19T05:26:24.715Z,16.00
2022-10-19T05:28:59.406Z,16.00
2022-10-19T05:31:30.241Z,16.00
2022-10-19T05:33:57.711Z,16.00
2022-10-19T05:36:34.596Z,16.00
2022-10-19T05:39:09.347Z,16.00
2022-10-19T05:41:36.170Z,16.00
2022-10-19T05:44:05.699Z,16.00
2022-10-19T05:46:34.734Z,16.00
2022-10-19T05:49:01.578Z,16.00
2022-10-19T05:51:29.143Z,16.00
2022-10-19T05:53:57.706Z,16.00
2022-10-19T05:56:28.468Z,16.00
2022-10-19T05:58:58.062Z,16.00
2022-10-19T06:01:26.125Z,15.92
2022-10-19T06:03:55.149Z,15.90
2022-10-19T06:06:23.112Z,15.90
2022-10-19T06:08:51.478Z,15.90
2022-10-19T06:11:23.176Z,15.98
2022-10-19T06:13:54.224Z,16.00
2022-10-19T06:16:24.100Z,16.00
2022-10-19T06:18:52.995Z,16.00
2022-10-19T06:21:23.132Z,16.00
2022-10-19T06:23:52.663Z,16.00
2022-10-19T06:26:20.926Z,16.00
2022-10-19T06:28:49.169Z,16.00
2022-10-19T06:31:17.160Z,16.00
2022-10-19T06:33:48.653Z,16.00
2022-10-19T06:36:20.834Z,16.08
2022-10-19T06:38:49.026Z,16.10
2022-10-19T06:41:17.315Z,16.10
2022-10-19T06:43:44.560Z,16.12
2022-10-19T06:46:17.491Z,16.20
2022-10-19T06:48:44.406Z,16.20
2022-10-19T06:51:13.278Z,16.26
2022-10-19T06:53:40.122Z,16.30
2022-10-19T06:56:07.678Z,16.30
2022-10-19T06:58:39.039Z,16.30
2022-10-19T07:01:09.042Z,16.40
2022-10-19T07:03:37.573Z,16.40
2022-10-19T07:06:08.620Z,16.50
2022-10-19T07:08:38.070Z,16.52
2022-10-19T07:11:09.655Z,16.60
2022-10-19T07:13:36.791Z,16.68
2022-10-19T07:16:14.560Z,16.72
2022-10-19T07:18:45.399Z,16.80
2022-10-19T07:21:15.829Z,16.90
2022-10-19T07:23:45.637Z,17.00
2022-10-19T07:26:28.460Z,17.10
2022-10-19T07:28:58.042Z,17.20
2022-10-19T07:31:27.408Z,17.30
2022-10-19T07:33:57.163Z,17.40
2022-10-19T07:36:25.796Z,17.40
2022-10-19T07:38:53.014Z,17.40
2022-10-19T07:41:23.526Z,17.50
2022-10-19T07:43:51.615Z,17.50
2022-10-19T07:46:25.417Z,17.50
2022-10-19T07:48:53.586Z,17.50
2022-10-19T07:51:23.096Z,17.50
2022-10-19T07:53:50.324Z,17.40
2022-10-19T07:56:28.323Z,17.40
2022-10-19T07:58:58.903Z,17.30
2022-10-19T08:01:35.553Z,17.30
2022-10-19T08:06:49.824Z,17.30
2022-10-19T08:09:40.205Z,17.30
2022-10-19T08:12:06.000Z,17.30
2022-10-19T08:14:33.390Z,17.30
2022-10-19T08:17:01.580Z,17.22
2022-10-19T08:19:28.402Z,17.20
2022-10-19T08:21:55.348Z,17.20
2022-10-19T08:24:22.206Z,17.20
2022-10-19T08:26:51.397Z,17.20
2022-10-19T08:29:21.208Z,17.20
2022-10-19T08:31:50.295Z,17.26
2022-10-19T08:34:17.959Z,17.30
2022-10-19T08:36:45.117Z,17.30
2022-10-19T08:39:13.583Z,17.36
2022-10-19T08:41:40.386Z,17.40
2022-10-19T08:44:48.158Z,17.40
2022-10-19T08:47:32.585Z,17.44
2022-10-19T08:50:00.546Z,17.50
2022-10-19T08:52:36.099Z,17.50
2022-10-19T08:55:15.199Z,17.50
2022-10-19T08:57:57.784Z,17.52
2022-10-19T09:00:43.375Z,17.60
2022-10-19T09:03:57.726Z,17.70
2022-10-19T09:06:50.051Z,17.80
2022-10-19T09:09:20.886Z,17.90
2022-10-19T09:11:52.847Z,17.96
2022-10-19T09:14:38.724Z,18.00
2022-10-19T09:17:16.973Z,18.10
2022-10-19T09:19:43.959Z,18.10
2022-10-19T09:22:25.548Z,18.20
2022-10-19T09:24:59.182Z,18.20
2022-10-19T09:27:35.619Z,18.30
2022-10-19T09:30:14.800Z,18.36
2022-10-19T09:32:42.421Z,18.40
2022-10-19T09:35:18.236Z,18.56
2022-10-19T09:37:49.434Z,18.60
2022-10-19T09:40:30.275Z,18.70
2022-10-19T09:42:59.383Z,18.70
2022-10-19T09:45:40.647Z,18.70
2022-10-19T09:48:23.587Z,18.92
2022-10-19T09:50:59.373Z,19.20
2022-10-19T09:53:28.303Z,19.36
2022-10-19T09:56:03.913Z,19.30
2022-10-19T09:58:33.112Z,19.24
2022-10-19T10:01:03.371Z,19.26
2022-10-19T10:03:43.798Z,19.30
2022-10-19T10:06:18.059Z,19.40
2022-10-19T10:08:58.095Z,19.58
2022-10-19T10:11:38.316Z,19.78
2022-10-19T10:14:27.044Z,19.90
2022-10-19T10:17:03.314Z,20.10
2022-10-19T10:19:33.500Z,20.12
2022-10-19T10:22:00.763Z,20.14
2022-10-19T10:24:30.909Z,20.20
2022-10-19T10:27:02.467Z,20.30
2022-10-19T10:29:39.303Z,20.40
2022-10-19T10:32:19.405Z,20.60
2022-10-19T10:35:02.670Z,20.66
2022-10-19T10:37:43.197Z,20.70
2022-10-19T10:40:29.549Z,20.70
2022-10-19T10:43:08.876Z,20.80
2022-10-19T10:45:45.219Z,20.90
2022-10-19T10:48:53.428Z,20.90
2022-10-19T10:51:43.921Z,21.00
2022-10-19T10:54:17.292Z,21.00
2022-10-19T10:57:18.746Z,20.94
2022-10-19T11:00:12.375Z,21.10
2022-10-19T11:03:16.595Z,21.10
2022-10-19T11:05:55.584Z,21.00
2022-10-19T11:08:51.237Z,20.92
2022-10-19T11:11:30.677Z,21.14
2022-10-19T11:14:26.499Z,21.08
2022-10-19T11:16:57.627Z,20.94
2022-10-19T11:19:34.110Z,20.80
2022-10-19T11:22:42.919Z,20.80
2022-10-19T11:25:34.765Z,20.78
2022-10-19T11:28:42.782Z,20.90
2022-10-19T11:31:29.680Z,21.08
2022-10-19T11:34:06.153Z,21.18
2022-10-19T11:36:39.941Z,21.20
2022-10-19T11:39:48.137Z,21.30
2022-10-19T11:43:02.764Z,21.50
2022-10-19T11:45:58.624Z,21.54
2022-10-19T11:49:04.865Z,21.50
2022-10-19T11:51:49.885Z,21.30
2022-10-19T11:54:36.914Z,21.20
2022-10-19T11:57:16.116Z,21.20
2022-10-19T12:00:27.280Z,21.10
2022-10-19T12:03:30.399Z,21.20
2022-10-19T12:06:25.515Z,21.24
2022-10-19T12:09:20.159Z,21.30
2022-10-19T12:12:32.805Z,21.30
2022-10-19T12:15:12.155Z,21.34
2022-10-19T12:17:44.007Z,21.30
2022-10-19T12:20:40.047Z,21.26
2022-10-19T12:23:34.823Z,21.20
2022-10-19T12:26:10.540Z,21.28
2022-10-19T12:28:43.295Z,21.24
2022-10-19T12:31:12.165Z,21.10
2022-10-19T12:34:16.487Z,21.00
2022-10-19T12:37:08.604Z,21.00
2022-10-19T12:40:19.747Z,20.90
2022-10-19T12:43:05.077Z,20.80
2022-10-19T12:45:44.107Z,20.80
2022-10-19T12:48:19.067Z,20.80
2022-10-19T12:50:48.688Z,20.70
2022-10-19T12:53:49.337Z,20.60
2022-10-19T12:56:26.551Z,20.60
2022-10-19T12:59:01.596Z,20.46
2022-10-19T13:01:44.420Z,20.40
2022-10-19T13:04:18.095Z,20.40
2022-10-19T13:06:58.979Z,20.38
2022-10-19T13:09:36.913Z,20.32
2022-10-19T13:12:19.515Z,20.30
2022-10-19T13:14:50.663Z,20.30
2022-10-19T13:17:49.149Z,20.20
2022-10-19T13:20:16.418Z,20.20
2022-10-19T13:22:49.113Z,20.20
2022-10-19T13:25:27.957Z,20.20
2022-10-19T13:28:22.785Z,20.20
2022-10-19T13:30:49.627Z,20.20
2022-10-19T13:33:25.663Z,20.20
2022-10-19T13:36:02.708Z,20.18
2022-10-19T13:41:45.487Z,20.10
2022-10-19T13:44:25.418Z,20.10
2022-10-19T13:46:55.305Z,20.10
2022-10-19T13:50:02.364Z,20.10
2022-10-19T13:52:55.797Z,20.10
2022-10-19T13:55:54.095Z,20.10
2022-10-19T13:59:35.603Z,20.10
2022-10-19T14:03:00.692Z,20.12
2022-10-19T14:05:52.732Z,20.20
2022-10-19T14:08:44.609Z,20.10
2022-10-19T14:11:24.903Z,20.10
2022-10-19T14:14:11.842Z,20.10
2022-10-19T14:16:59.892Z,20.10
2022-10-19T14:19:41.134Z,20.10
2022-10-19T14:22:33.920Z,20.04
2022-10-19T14:25:28.183Z,20.00
2022-10-19T14:28:06.734Z,20.00
2022-10-19T14:30:37.216Z,20.00
2022-10-19T14:33:11.362Z,19.90
2022-10-19T14:35:43.483Z,19.90
2022-10-19T14:38:21.592Z,19.84
2022-10-19T14:40:48.447Z,19.80
2022-10-19T14:43:32.194Z,19.78
2022-10-19T14:46:08.333Z,19.70
2022-10-19T14:48:39.179Z,19.62
2022-10-19T14:51:36.731Z,19.60
2022-10-19T14:54:08.102Z,19.54
2022-10-19T14:56:41.627Z,19.50
2022-10-19T14:59:39.919Z,19.40
2022-10-19T15:02:42.758Z,19.40
2022-10-19T15:05:22.432Z,19.38
2022-10-19T15:07:50.172Z,19.30
2022-10-19T15:10:29.354Z,19.30
2022-10-19T15:13:03.906Z,19.20
2022-10-19T15:15:34.538Z,19.12
2022-10-19T15:18:01.331Z,19.08
2022-10-19T15:20:44.177Z,19.00
2022-10-19T15:23:38.298Z,19.00
2022-10-19T15:26:26.542Z,18.90
2022-10-19T15:29:06.928Z,18.90
2022-10-19T15:31:33.941Z,18.80
2022-10-19T15:34:03.751Z,18.70
2022-10-19T15:36:32.847Z,18.70
2022-10-19T15:39:25.171Z,18.70
2022-10-19T15:41:55.825Z,18.60
2022-10-19T15:44:42.123Z,18.50
2022-10-19T15:47:15.250Z,18.50
2022-10-19T15:49:42.145Z,18.40
2022-10-19T15:52:38.287Z,18.30
2022-10-19T15:55:05.839Z,18.20
2022-10-19T15:57:38.949Z,18.10
2022-10-19T16:00:15.771Z,18.00
2022-10-19T16:02:42.858Z,17.90
2022-10-19T16:05:11.079Z,17.76
2022-10-19T16:07:41.321Z,17.64
2022-10-19T16:10:17.356Z,17.50
2022-10-19T16:12:44.590Z,17.40
2022-10-19T16:15:22.206Z,17.36
2022-10-19T16:17:57.919Z,17.20
2022-10-19T16:20:28.147Z,17.10
2022-10-19T16:22:55.795Z,17.00
2022-10-19T16:25:23.147Z,16.90
2022-10-19T16:27:51.126Z,16.80
2022-10-19T16:30:18.966Z,16.64
2022-10-19T16:32:49.346Z,16.54
2022-10-19T16:35:16.766Z,16.40
2022-10-19T16:37:43.587Z,16.30
2022-10-19T16:40:12.347Z,16.20
2022-10-19T16:42:39.748Z,16.10
2022-10-19T16:45:08.155Z,16.00
2022-10-19T16:47:35.577Z,16.00
2022-10-19T16:50:05.901Z,15.92
2022-10-19T16:52:34.467Z,15.90
2022-10-19T16:55:02.755Z,15.90
2022-10-19T16:57:30.410Z,15.90
2022-10-19T16:59:57.820Z,15.84
2022-10-19T17:02:25.134Z,15.80
2022-10-19T17:04:52.699Z,15.80
2022-10-19T17:07:19.846Z,15.70
2022-10-19T17:09:49.697Z,15.66
2022-10-19T17:12:20.232Z,15.60
2022-10-19T17:14:48.050Z,15.56
2022-10-19T17:17:17.277Z,15.50
2022-10-19T17:19:45.249Z,15.40
2022-10-19T17:22:12.985Z,15.40
2022-10-19T17:24:41.033Z,15.30
2022-10-19T17:27:09.018Z,15.30
2022-10-19T17:29:37.484Z,15.28
2022-10-19T17:32:05.573Z,15.20
2022-10-19T17:34:33.378Z,15.20
2022-10-19T17:37:00.486Z,15.20
2022-10-19T17:39:29.923Z,15.20
2022-10-19T17:42:03.489Z,15.26
2022-10-19T17:44:32.026Z,15.30
2022-10-19T17:47:00.868Z,15.30
2022-10-19T17:49:30.091Z,15.30
2022-10-19T17:51:57.927Z,15.30
2022-10-19T17:54:25.285Z,15.30
2022-10-19T17:56:52.674Z,15.30
2022-10-19T17:59:30.290Z,15.20
2022-10-19T18:02:05.276Z,15.10
2022-10-19T18:04:32.691Z,15.10
2022-10-19T18:07:00.887Z,15.10
2022-10-19T18:09:27.965Z,15.10
2022-10-19T18:11:55.184Z,15.06
2022-10-19T18:14:22.644Z,15.04
2022-10-19T18:16:52.423Z,15.00
2022-10-19T18:19:19.729Z,15.10
2022-10-19T18:21:49.169Z,15.14
2022-10-19T18:24:20.350Z,15.10
2022-10-19T18:26:51.057Z,15.20
2022-10-19T18:29:23.143Z,15.10
2022-10-19T18:31:53.943Z,14.90
2022-10-19T18:34:25.379Z,14.80
2022-10-19T18:36:54.220Z,14.70
2022-10-19T18:39:22.460Z,14.60
2022-10-19T18:41:54.901Z,14.50
2022-10-19T18:44:26.574Z,14.40
2022-10-19T18:46:55.316Z,14.38
2022-10-19T18:49:22.738Z,14.30
2022-10-19T18:51:54.147Z,14.28
2022-10-19T18:54:24.042Z,14.20
2022-10-19T18:56:50.991Z,14.20
2022-10-19T18:59:18.767Z,14.20
2022-10-19T19:01:45.657Z,14.18
2022-10-19T19:04:13.691Z,14.10
2022-10-19T19:06:41.114Z,14.04
2022-10-19T19:09:12.055Z,14.00
2022-10-19T19:11:41.800Z,13.98
2022-10-19T19:14:12.214Z,13.90
2022-10-19T19:16:41.947Z,13.80
2022-10-19T19:19:12.815Z,13.72
2022-10-19T19:21:44.653Z,13.70
2022-10-19T19:24:19.297Z,13.64
2022-10-19T19:26:53.291Z,13.60
2022-10-19T19:29:22.460Z,13.60
2022-10-19T19:31:50.201Z,13.50
2022-10-19T19:34:18.186Z,13.40
2022-10-19T19:36:48.689Z,13.30
2022-10-19T19:39:19.639Z,13.20
2022-10-19T19:41:48.965Z,13.14
2022-10-19T19:44:17.101Z,13.10
2022-10-19T19:46:43.896Z,13.00
2022-10-19T19:49:11.424Z,12.90
2022-10-19T19:51:38.243Z,12.80
2022-10-19T19:54:05.659Z,12.70
2022-10-19T19:56:32.981Z,12.60
2022-10-19T19:59:03.796Z,12.50
2022-10-19T20:01:32.192Z,12.40
2022-10-19T20:06:37.005Z,12.20
2022-10-19T20:09:06.806Z,12.10
2022-10-19T20:11:37.142Z,12.04
2022-10-19T20:14:06.749Z,11.98
2022-10-19T20:16:34.418Z,11.92
2022-10-19T20:19:09.168Z,11.90
2022-10-19T20:21:36.385Z,11.80
2022-10-19T20:24:04.363Z,11.80
2022-10-19T20:26:31.671Z,11.80
2022-10-19T20:29:01.129Z,11.70
2022-10-19T20:33:59.712Z,11.60
2022-10-19T20:36:27.007Z,11.50
2022-10-19T20:38:58.891Z,11.50
2022-10-19T20:41:28.714Z,11.50
2022-10-19T20:43:56.684Z,11.44
2022-10-19T20:46:26.997Z,11.40
2022-10-19T20:48:57.123Z,11.40
2022-10-19T20:51:30.926Z,11.36
2022-10-19T20:54:01.763Z,11.40
2022-10-19T20:56:33.774Z,11.40
2022-10-19T20:59:17.204Z,11.40
2022-10-19T21:01:46.409Z,11.36
2022-10-19T21:04:15.847Z,11.30
2022-10-19T21:06:46.378Z,11.30
2022-10-19T21:09:17.223Z,11.30
2022-10-19T21:11:45.744Z,11.30
2022-10-19T21:14:16.618Z,11.30
2022-10-19T21:16:43.669Z,11.30
2022-10-19T21:19:19.752Z,11.30
2022-10-19T21:21:51.049Z,11.30
2022-10-19T21:24:22.291Z,11.28
2022-10-19T21:26:49.363Z,11.30
2022-10-19T21:29:17.188Z,11.20
2022-10-19T21:31:49.043Z,11.20
2022-10-19T21:34:21.950Z,11.10
2022-10-19T21:36:49.844Z,11.10
2022-10-19T21:39:17.751Z,11.10
2022-10-19T21:41:45.228Z,11.10
2022-10-19T21:44:12.223Z,11.02
2022-10-19T21:46:40.235Z,11.10
2022-10-19T21:49:07.080Z,11.00
2022-10-19T21:51:53.754Z,11.00
2022-10-19T21:54:29.251Z,10.96
2022-10-19T21:56:57.804Z,10.90
2022-10-19T21:59:25.479Z,10.90
2022-10-19T22:01:54.674Z,10.82
2022-10-19T22:04:22.541Z,10.82
2022-10-19T22:06:49.489Z,10.80
2022-10-19T22:09:20.242Z,10.80
2022-10-19T22:11:47.578Z,10.80
2022-10-19T22:14:16.667Z,10.80
2022-10-19T22:16:44.236Z,10.86
2022-10-19T22:19:12.078Z,10.90
2022-10-19T22:21:39.911Z,10.90
2022-10-19T22:24:12.830Z,11.00
2022-10-19T22:26:47.297Z,10.98
2022-10-19T22:29:14.730Z,11.00
2022-10-19T22:31:42.411Z,11.00
2022-10-19T22:34:17.129Z,11.00
2022-10-19T22:36:45.223Z,11.10
2022-10-19T22:39:13.269Z,11.10
2022-10-19T22:41:39.990Z,11.12
2022-10-19T22:44:06.842Z,11.10
2022-10-19T22:46:33.723Z,11.10
2022-10-19T22:49:00.690Z,11.10
2022-10-19T22:51:27.688Z,11.10
2022-10-19T22:53:54.697Z,11.10
2022-10-19T22:56:21.863Z,11.18
2022-10-19T22:58:48.807Z,11.10
2022-10-19T23:01:16.862Z,11.10
2022-10-19T23:03:44.148Z,11.10
2022-10-19T23:06:15.473Z,11.20
2022-10-19T23:08:44.342Z,11.20
2022-10-19T23:11:12.427Z,11.20
2022-10-19T23:13:39.819Z,11.20
2022-10-19T23:16:07.643Z,11.24
2022-10-19T23:18:38.582Z,11.20
2022-10-19T23:21:11.133Z,11.20
2022-10-19T23:23:39.359Z,11.20
2022-10-19T23:26:12.452Z,11.20
2022-10-19T23:28:44.619Z,11.20
2022-10-19T23:31:26.082Z,11.20
2022-10-19T23:33:53.979Z,11.20
2022-10-19T23:36:26.995Z,11.22
2022-10-19T23:38:56.526Z,11.22
2022-10-19T23:41:24.312Z,11.20
2022-10-19T23:43:51.554Z,11.20
2022-10-19T23:46:18.604Z,11.20
2022-10-19T23:48:45.435Z,11.20
2022-10-19T23:51:16.796Z,11.10
2022-10-19T23:53:46.811Z,11.10
2022-10-19T23:56:25.849Z,11.12
2022-10-19T23:58:53.699Z,11.12
